Time;durP1;ratioP1;P1;durP2;ratioP2;P2;SDS_P1;SDS_P2;PMS_P1;PMS_P2;Temp;Humidity;BMP_temperature;BMP_pressure;BME280_temperature;BME280_humidity;BME280_pressure;Samples;Min_cycle;Max_cycle;Signal;HPM_P1;HPM_P2
2021/11/13 00:02:06;;;;;;;40.60;22.80;;;6.90;99.90;;;;;;6149916;23;20205;-67
2021/11/13 00:04:31;;;;;;;43.60;24.50;;;6.80;99.90;;;;;;6151803;23;20189;-67
2021/11/13 00:06:57;;;;;;;38.47;22.07;;;6.90;99.90;;;;;;6152748;23;20585;-67
2021/11/13 00:09:23;;;;;;;42.03;23.50;;;6.90;99.90;;;;;;6151601;23;20393;-67
2021/11/13 00:11:54;;;;;;;37.47;22.00;;;7.00;99.90;;;;;;6150939;23;20272;-67
2021/11/13 00:14:22;;;;;;;37.27;22.63;;;7.00;99.90;;;;;;6150374;23;20189;-67
2021/11/13 00:16:48;;;;;;;43.53;24.73;;;7.00;99.90;;;;;;6150833;23;20711;-67
2021/11/13 00:19:16;;;;;;;42.10;22.50;;;6.80;99.90;;;;;;6150505;23;20549;-67
2021/11/13 00:21:42;;;;;;;45.87;24.10;;;6.90;99.90;;;;;;6151574;23;20666;-67
2021/11/13 00:24:08;;;;;;;41.50;23.90;;;7.00;99.90;;;;;;6149300;23;21181;-67
2021/11/13 00:26:34;;;;;;;37.83;21.97;;;6.90;99.90;;;;;;6152556;23;20157;-67
2021/11/13 00:28:59;;;;;;;42.47;25.67;;;6.90;99.90;;;;;;6151078;23;20560;-67
2021/11/13 00:31:53;;;;;;;44.37;24.53;;;6.90;99.90;;;;;;6150784;23;20193;-67
2021/11/13 00:34:22;;;;;;;38.53;24.07;;;6.90;99.90;;;;;;6148252;23;20182;-67
2021/11/13 00:36:48;;;;;;;41.30;22.90;;;7.00;99.90;;;;;;6150212;23;20719;-67
2021/11/13 00:39:16;;;;;;;43.87;23.40;;;7.00;99.90;;;;;;6152890;23;20540;-67
2021/11/13 00:41:45;;;;;;;43.60;23.73;;;7.00;99.90;;;;;;6149180;23;20229;-67
2021/11/13 00:44:10;;;;;;;42.67;23.40;;;7.00;99.90;;;;;;6152063;23;20613;-67
2021/11/13 00:46:36;;;;;;;40.47;24.43;;;7.00;99.90;;;;;;6153009;23;20556;-67
2021/11/13 00:49:10;;;;;;;43.30;24.93;;;6.90;99.90;;;;;;6152981;23;20176;-67
2021/11/13 00:51:39;;;;;;;42.53;23.33;;;6.80;99.90;;;;;;6151427;23;20643;-66
2021/11/13 00:54:06;;;;;;;43.80;24.00;;;6.80;99.90;;;;;;6153090;23;21164;-67
2021/11/13 00:56:35;;;;;;;44.87;25.87;;;6.90;99.90;;;;;;6153851;23;20583;-67
2021/11/13 00:59:07;;;;;;;44.20;23.87;;;6.90;99.90;;;;;;6150866;23;20553;-67
2021/11/13 01:02:39;;;;;;;;;;;;;;;;;;;;;
2021/11/13 01:05:06;;;;;;;40.60;23.60;;;6.80;99.90;;;;;;6125295;23;21407;-67
2021/11/13 01:07:32;;;;;;;45.67;25.53;;;6.80;99.90;;;;;;6152487;23;20636;-67
2021/11/13 01:09:57;;;;;;;45.37;24.70;;;6.70;99.90;;;;;;6152960;23;20565;-67
2021/11/13 01:12:23;;;;;;;45.60;24.53;;;6.70;99.90;;;;;;6152065;23;20667;-67
2021/11/13 01:14:52;;;;;;;41.90;22.87;;;6.70;99.90;;;;;;6151904;23;20181;-67
2021/11/13 01:17:20;;;;;;;41.87;25.27;;;6.70;99.90;;;;;;6151725;23;20572;-67
2021/11/13 01:19:46;;;;;;;45.43;24.30;;;6.70;99.90;;;;;;6150449;23;20556;-67
2021/11/13 01:22:14;;;;;;;44.53;24.33;;;6.70;99.90;;;;;;6150860;23;20581;-67
2021/11/13 01:24:40;;;;;;;41.27;23.70;;;6.70;99.90;;;;;;6150941;23;20696;-67
2021/11/13 01:27:06;;;;;;;43.10;24.07;;;6.70;99.90;;;;;;6151096;23;20612;-67
2021/11/13 01:29:37;;;;;;;41.03;22.93;;;6.50;99.90;;;;;;6151277;23;20213;-67
2021/11/13 01:32:03;;;;;;;43.03;23.50;;;6.60;99.90;;;;;;6148499;23;20628;-67
2021/11/13 01:34:47;;;;;;;42.57;24.50;;;6.60;99.90;;;;;;6151785;23;20580;-67
2021/11/13 01:37:14;;;;;;;38.47;23.00;;;6.60;99.90;;;;;;6152123;23;20621;-67
2021/11/13 01:39:40;;;;;;;45.70;25.87;;;6.50;99.90;;;;;;6150906;23;20556;-67
2021/11/13 01:42:06;;;;;;;41.90;23.57;;;6.60;99.90;;;;;;6149232;23;20942;-67
2021/11/13 01:44:33;;;;;;;44.93;23.87;;;6.60;99.90;;;;;;6150051;23;20616;-67
2021/11/13 01:47:06;;;;;;;40.83;22.70;;;6.60;99.90;;;;;;6149775;23;20205;-67
2021/11/13 01:49:34;;;;;;;38.57;23.23;;;6.70;99.90;;;;;;6151304;23;20533;-67
2021/11/13 01:52:06;;;;;;;43.40;24.00;;;6.70;99.90;;;;;;6147850;23;20592;-67
2021/11/13 01:54:39;;;;;;;48.37;23.30;;;6.70;99.90;;;;;;6150789;23;20572;-67
2021/11/13 01:57:11;;;;;;;41.23;21.73;;;6.80;99.90;;;;;;6150775;23;20501;-67
2021/11/13 01:59:40;;;;;;;41.37;23.17;;;6.80;99.90;;;;;;6146862;23;20557;-67
2021/11/13 02:02:07;;;;;;;36.90;22.80;;;7.00;99.90;;;;;;6148065;23;20660;-66
2021/11/13 02:04:35;;;;;;;40.17;23.73;;;6.90;99.90;;;;;;6148033;23;21251;-67
2021/11/13 02:07:01;;;;;;;40.73;23.63;;;6.90;99.90;;;;;;6149658;23;20599;-67
2021/11/13 02:09:27;;;;;;;41.57;23.30;;;6.80;99.90;;;;;;6148678;23;20565;-67
2021/11/13 02:11:54;;;;;;;41.67;24.60;;;6.90;99.90;;;;;;6151343;23;20201;-67
2021/11/13 02:14:22;;;;;;;42.20;23.23;;;6.80;99.90;;;;;;6149476;23;20177;-67
2021/11/13 02:16:48;;;;;;;43.30;23.03;;;6.90;99.90;;;;;;6149542;23;20565;-67
2021/11/13 02:19:14;;;;;;;40.50;23.03;;;6.80;99.90;;;;;;6151915;23;20587;-67
2021/11/13 02:21:40;;;;;;;39.30;23.43;;;6.90;99.90;;;;;;6150615;23;20209;-67
2021/11/13 02:24:06;;;;;;;39.90;23.50;;;6.70;99.90;;;;;;6149022;23;20628;-67
2021/11/13 02:26:31;;;;;;;35.67;23.03;;;6.80;99.90;;;;;;6151036;23;20205;-67
2021/11/13 02:29:00;;;;;;;35.60;21.80;;;6.90;99.90;;;;;;6151180;23;20205;-67
2021/11/13 02:31:43;;;;;;;39.83;23.67;;;6.90;99.90;;;;;;6148396;23;20205;-67
2021/11/13 02:34:12;;;;;;;36.10;21.00;;;6.80;99.90;;;;;;6150397;23;20921;-67
2021/11/13 02:36:39;;;;;;;42.73;24.03;;;6.90;99.90;;;;;;6151394;23;20548;-67
2021/11/13 02:39:12;;;;;;;40.50;24.13;;;6.90;99.90;;;;;;6147968;23;20566;-66
2021/11/13 02:41:42;;;;;;;37.63;22.77;;;6.90;99.90;;;;;;6150145;23;20596;-67
2021/11/13 02:44:08;;;;;;;38.77;24.87;;;6.90;99.90;;;;;;6149910;23;20608;-67
2021/11/13 02:46:34;;;;;;;38.77;23.00;;;6.90;99.90;;;;;;6151662;23;20529;-67
2021/11/13 02:49:06;;;;;;;39.53;23.13;;;6.80;99.90;;;;;;6149273;23;20496;-67
2021/11/13 02:51:34;;;;;;;39.37;23.20;;;6.90;99.90;;;;;;6150200;23;20581;-66
2021/11/13 02:54:00;;;;;;;34.00;21.90;;;6.80;99.90;;;;;;6151160;23;20900;-67
2021/11/13 02:56:26;;;;;;;37.57;23.70;;;6.90;99.90;;;;;;6152019;23;20537;-67
2021/11/13 02:58:54;;;;;;;34.23;20.80;;;6.90;99.90;;;;;;6150490;23;20161;-67
2021/11/13 03:01:22;;;;;;;42.03;22.30;;;7.00;99.90;;;;;;6148305;23;20223;-66
2021/11/13 03:03:53;;;;;;;39.00;23.13;;;6.90;99.90;;;;;;6150613;23;20580;-66
2021/11/13 03:06:19;;;;;;;37.00;23.47;;;7.00;99.90;;;;;;6151207;23;20572;-67
2021/11/13 03:08:49;;;;;;;36.57;21.70;;;7.00;99.90;;;;;;6151046;23;20502;-67
2021/11/13 03:11:18;;;;;;;33.50;22.80;;;7.00;99.90;;;;;;6148743;23;20682;-66
2021/11/13 03:13:46;;;;;;;34.30;22.40;;;7.00;99.90;;;;;;6150678;23;20548;-67
2021/11/13 03:16:15;;;;;;;39.57;22.80;;;7.00;99.90;;;;;;6151104;23;20571;-66
2021/11/13 03:18:46;;;;;;;35.00;22.53;;;7.00;99.90;;;;;;6151578;23;20529;-66
2021/11/13 03:21:12;;;;;;;34.37;22.47;;;7.00;99.90;;;;;;6149295;23;20601;-66
2021/11/13 03:23:45;;;;;;;37.37;22.30;;;7.00;99.90;;;;;;6151332;23;20583;-66
2021/11/13 03:26:25;;;;;;;36.87;21.30;;;7.00;99.90;;;;;;6151617;23;20142;-67
2021/11/13 03:29:03;;;;;;;35.90;21.23;;;7.00;99.90;;;;;;6152221;23;20517;-66
2021/11/13 03:31:29;;;;;;;36.60;21.93;;;7.00;99.90;;;;;;6146772;23;20592;-66
2021/11/13 03:34:03;;;;;;;40.07;24.33;;;7.00;99.90;;;;;;6150894;23;20579;-66
2021/11/13 03:36:28;;;;;;;36.00;22.47;;;7.00;99.90;;;;;;6151252;23;20135;-66
2021/11/13 03:38:54;;;;;;;32.80;20.57;;;7.10;99.90;;;;;;6151840;23;20605;-66
2021/11/13 03:41:20;;;;;;;33.80;21.87;;;7.10;99.90;;;;;;6150781;23;20198;-66
2021/11/13 03:43:48;;;;;;;35.70;22.80;;;7.10;99.90;;;;;;6151423;23;20190;-66
2021/11/13 03:46:14;;;;;;;36.70;21.33;;;6.90;99.90;;;;;;6150971;23;20540;-66
2021/11/13 03:48:41;;;;;;;36.63;22.07;;;6.80;99.90;;;;;;6152522;23;20620;-66
2021/11/13 03:51:07;;;;;;;34.73;21.07;;;6.90;99.90;;;;;;6150528;23;20592;-67
2021/11/13 03:53:33;;;;;;;37.10;22.13;;;7.00;99.90;;;;;;6150944;23;20556;-67
2021/11/13 03:56:01;;;;;;;35.50;21.03;;;7.00;99.90;;;;;;6150372;23;20165;-66
2021/11/13 03:58:26;;;;;;;32.33;20.80;;;7.00;99.90;;;;;;6151562;23;20604;-66
2021/11/13 04:00:54;;;;;;;31.03;21.23;;;7.00;99.90;;;;;;6147658;23;20874;-66
2021/11/13 04:03:27;;;;;;;30.77;19.07;;;7.10;99.90;;;;;;6148686;23;20158;-66
2021/11/13 04:05:53;;;;;;;35.30;21.00;;;7.00;99.90;;;;;;6148892;23;20615;-66
2021/11/13 04:08:19;;;;;;;35.20;22.60;;;7.00;99.90;;;;;;6152308;23;20506;-66
2021/11/13 04:10:52;;;;;;;35.70;21.17;;;7.00;99.90;;;;;;6148663;23;20634;-66
2021/11/13 04:13:18;;;;;;;39.83;21.33;;;7.00;99.90;;;;;;6151752;23;20149;-66
2021/11/13 04:15:44;;;;;;;32.70;21.47;;;7.10;99.90;;;;;;6149806;23;20592;-67
2021/11/13 04:18:10;;;;;;;36.90;22.20;;;7.00;99.90;;;;;;6150912;23;21059;-66
2021/11/13 04:20:38;;;;;;;35.53;21.63;;;7.00;99.90;;;;;;6152451;23;20530;-66
2021/11/13 04:23:06;;;;;;;31.47;20.90;;;7.10;99.90;;;;;;6158338;23;20232;-66
2021/11/13 04:25:32;;;;;;;30.53;20.67;;;7.20;99.90;;;;;;6156311;23;20608;-66
2021/11/13 04:27:58;;;;;;;34.30;22.20;;;7.20;99.90;;;;;;6157028;23;20533;-66
2021/11/13 04:30:26;;;;;;;31.90;20.40;;;7.20;99.90;;;;;;6154589;23;20577;-67
2021/11/13 04:32:52;;;;;;;32.27;21.03;;;7.20;99.90;;;;;;6154281;23;20150;-66
2021/11/13 04:35:21;;;;;;;33.50;20.97;;;7.10;99.90;;;;;;6155077;23;21215;-66
2021/11/13 04:38:00;;;;;;;34.27;21.43;;;7.20;99.90;;;;;;6150686;23;20197;-66
2021/11/13 04:40:34;;;;;;;33.67;21.37;;;7.20;99.90;;;;;;6149942;23;20592;-66
2021/11/13 04:43:10;;;;;;;38.20;21.43;;;7.30;99.90;;;;;;6150559;23;20572;-66
2021/11/13 04:45:38;;;;;;;31.13;21.40;;;7.20;99.90;;;;;;6148669;23;20635;-66
2021/11/13 04:48:03;;;;;;;33.00;20.40;;;7.30;99.90;;;;;;6150766;23;20538;-66
2021/11/13 04:50:36;;;;;;;32.20;20.17;;;7.30;99.90;;;;;;6147551;23;20581;-66
2021/11/13 04:53:13;;;;;;;34.83;21.43;;;7.30;99.90;;;;;;6150389;23;20213;-66
2021/11/13 04:55:39;;;;;;;35.00;21.83;;;7.20;99.90;;;;;;6150236;23;20580;-66
2021/11/13 04:58:05;;;;;;;33.63;21.43;;;7.20;99.90;;;;;;6151220;23;20541;-67
2021/11/13 05:00:32;;;;;;;31.07;20.40;;;7.20;99.90;;;;;;6149223;23;20328;-67
2021/11/13 05:02:58;;;;;;;32.90;20.70;;;7.20;99.90;;;;;;6148580;23;20541;-67
2021/11/13 05:05:24;;;;;;;36.60;21.33;;;7.20;99.90;;;;;;6150026;23;20627;-67
2021/11/13 05:07:53;;;;;;;34.30;21.83;;;7.20;99.90;;;;;;6149463;23;20575;-67
2021/11/13 05:10:25;;;;;;;36.77;22.50;;;7.00;99.90;;;;;;6149508;23;20656;-67
2021/11/13 05:12:51;;;;;;;35.47;21.90;;;7.00;99.90;;;;;;6149041;23;20502;-67
2021/11/13 05:15:20;;;;;;;36.27;23.30;;;7.00;99.90;;;;;;6147463;23;21153;-67
2021/11/13 05:17:46;;;;;;;37.13;21.60;;;7.00;99.90;;;;;;6148745;23;20690;-66
2021/11/13 05:20:13;;;;;;;39.07;23.33;;;7.10;99.90;;;;;;6149001;23;20533;-66
2021/11/13 05:22:43;;;;;;;33.63;20.63;;;7.10;99.90;;;;;;6149294;23;20541;-67
2021/11/13 05:25:11;;;;;;;32.73;20.47;;;7.00;99.90;;;;;;6148048;23;21228;-66
2021/11/13 05:27:37;;;;;;;35.40;21.47;;;7.10;99.90;;;;;;6148688;23;20568;-67
2021/11/13 05:30:05;;;;;;;35.93;21.13;;;7.10;99.90;;;;;;6148397;23;20652;-66
2021/11/13 05:32:31;;;;;;;38.13;21.10;;;7.10;99.90;;;;;;6151780;23;20547;-67
2021/11/13 05:34:56;;;;;;;32.83;21.40;;;7.20;99.90;;;;;;6150910;23;20577;-67
2021/11/13 05:37:22;;;;;;;34.80;22.03;;;7.20;99.90;;;;;;6150458;23;20171;-67
2021/11/13 05:39:48;;;;;;;37.37;22.07;;;7.20;99.90;;;;;;6150834;23;20188;-67
2021/11/13 05:42:15;;;;;;;37.10;22.03;;;7.20;99.90;;;;;;6149932;23;20204;-67
2021/11/13 05:44:41;;;;;;;36.37;22.70;;;7.20;99.90;;;;;;6149607;23;20224;-68
2021/11/13 05:47:07;;;;;;;37.00;22.30;;;7.20;99.90;;;;;;6151327;23;20529;-67
2021/11/13 05:49:35;;;;;;;36.13;22.70;;;7.10;99.90;;;;;;6152160;23;20541;-67
2021/11/13 05:52:03;;;;;;;42.53;23.83;;;7.10;99.90;;;;;;6150997;23;20543;-67
2021/11/13 05:54:29;;;;;;;39.43;22.60;;;7.10;99.90;;;;;;6149632;23;20589;-67
2021/11/13 05:56:57;;;;;;;33.97;21.77;;;7.00;99.90;;;;;;6151415;23;21093;-67
2021/11/13 05:59:23;;;;;;;37.73;21.60;;;7.10;99.90;;;;;;6151873;23;20158;-67
2021/11/13 06:01:56;;;;;;;36.17;22.07;;;7.00;99.90;;;;;;6150521;23;20617;-67
2021/11/13 06:04:21;;;;;;;35.47;22.27;;;6.90;99.90;;;;;;6149054;23;20718;-67
2021/11/13 06:06:49;;;;;;;36.60;22.37;;;6.90;99.90;;;;;;6149492;23;20592;-67
2021/11/13 06:09:15;;;;;;;35.87;22.67;;;7.00;99.90;;;;;;6152178;23;20504;-67
2021/11/13 06:11:43;;;;;;;33.57;20.93;;;7.00;99.90;;;;;;6149378;23;20585;-67
2021/11/13 06:14:09;;;;;;;36.93;21.53;;;7.00;99.90;;;;;;6148924;23;20178;-67
2021/11/13 06:16:35;;;;;;;36.03;22.87;;;7.00;99.90;;;;;;6150476;23;20680;-67
2021/11/13 06:19:00;;;;;;;34.27;22.37;;;7.00;99.90;;;;;;6151533;23;20158;-67
2021/11/13 06:21:33;;;;;;;36.40;22.73;;;7.10;99.90;;;;;;6148092;23;20564;-67
2021/11/13 06:24:02;;;;;;;34.57;22.30;;;7.00;99.90;;;;;;6150827;23;20189;-67
2021/11/13 06:26:27;;;;;;;35.60;22.70;;;7.10;99.90;;;;;;6150223;23;20557;-67
2021/11/13 06:28:56;;;;;;;37.10;23.60;;;7.10;99.90;;;;;;6152020;23;20538;-67
2021/11/13 06:31:23;;;;;;;33.57;22.10;;;7.10;99.90;;;;;;6152142;23;20206;-67
2021/11/13 06:33:49;;;;;;;35.60;21.83;;;7.10;99.90;;;;;;6152566;23;20544;-66
2021/11/13 06:36:19;;;;;;;36.80;21.37;;;7.10;99.90;;;;;;6151409;23;20565;-67
2021/11/13 06:38:45;;;;;;;38.17;21.80;;;7.20;99.90;;;;;;6152798;23;20225;-67
2021/11/13 06:41:10;;;;;;;36.53;22.00;;;7.20;99.90;;;;;;6153196;23;20623;-67
2021/11/13 06:43:36;;;;;;;32.97;21.43;;;7.20;99.90;;;;;;6154873;23;20168;-67
2021/11/13 06:46:02;;;;;;;33.53;21.53;;;7.20;99.90;;;;;;6161157;23;20168;-67
2021/11/13 06:48:37;;;;;;;35.90;22.57;;;7.20;99.90;;;;;;6159740;23;20154;-67
2021/11/13 06:51:03;;;;;;;32.80;22.57;;;7.10;99.90;;;;;;6157292;23;20204;-67
2021/11/13 06:53:31;;;;;;;35.53;21.77;;;7.10;99.90;;;;;;6162875;23;20536;-67
2021/11/13 06:55:57;;;;;;;32.27;20.90;;;7.00;99.90;;;;;;6157552;23;20209;-67
2021/11/13 06:58:22;;;;;;;35.10;21.30;;;7.10;99.90;;;;;;6158867;23;20534;-68
2021/11/13 07:00:48;;;;;;;32.60;22.63;;;7.10;99.90;;;;;;6159427;23;20612;-67
2021/11/13 07:03:14;;;;;;;34.10;21.67;;;7.10;99.90;;;;;;6160648;23;20150;-67
2021/11/13 07:05:40;;;;;;;34.77;22.33;;;7.10;99.90;;;;;;6152644;23;20185;-67
2021/11/13 07:08:06;;;;;;;35.87;22.53;;;7.10;99.90;;;;;;6155435;23;20640;-67
2021/11/13 07:10:32;;;;;;;39.17;21.93;;;7.10;99.90;;;;;;6155350;23;20277;-67
2021/11/13 07:12:57;;;;;;;37.43;22.90;;;7.10;99.90;;;;;;6152592;23;20549;-67
2021/11/13 07:15:25;;;;;;;31.93;21.07;;;7.10;99.90;;;;;;6152112;23;20181;-67
2021/11/13 07:17:51;;;;;;;33.60;20.90;;;7.10;99.90;;;;;;6150771;23;20166;-67
2021/11/13 07:20:18;;;;;;;32.10;21.10;;;7.20;99.90;;;;;;6153213;23;20552;-67
2021/11/13 07:22:46;;;;;;;33.73;22.30;;;7.20;99.90;;;;;;6154602;23;20217;-67
2021/11/13 07:25:14;;;;;;;35.83;22.90;;;7.10;99.90;;;;;;6154193;23;20593;-67
2021/11/13 07:27:46;;;;;;;31.90;22.77;;;7.10;99.90;;;;;;6153982;23;20529;-67
2021/11/13 07:30:15;;;;;;;36.77;22.33;;;7.10;99.90;;;;;;6153353;23;20557;-66
2021/11/13 07:32:44;;;;;;;35.10;21.43;;;7.00;99.90;;;;;;6152108;23;20565;-67
2021/11/13 07:35:10;;;;;;;37.23;22.00;;;7.00;99.90;;;;;;6153106;23;20900;-67
2021/11/13 07:37:36;;;;;;;33.50;21.40;;;7.00;99.90;;;;;;6153733;23;20873;-67
2021/11/13 07:40:04;;;;;;;34.43;21.90;;;7.10;99.90;;;;;;6151554;23;20185;-66
2021/11/13 07:42:30;;;;;;;35.43;22.30;;;7.00;99.90;;;;;;6152655;23;20190;-67
2021/11/13 07:44:57;;;;;;;36.10;22.23;;;7.00;99.90;;;;;;6152008;23;20617;-68
2021/11/13 07:47:23;;;;;;;29.60;19.33;;;7.10;99.90;;;;;;6151432;23;20165;-68
2021/11/13 07:49:49;;;;;;;35.43;21.30;;;7.20;99.90;;;;;;6151660;23;20572;-67
2021/11/13 07:52:21;;;;;;;34.77;21.50;;;7.20;99.90;;;;;;6152308;23;20197;-67
2021/11/13 07:54:47;;;;;;;34.70;20.13;;;7.20;99.90;;;;;;6152335;23;20182;-67
2021/11/13 07:57:15;;;;;;;31.20;20.67;;;7.20;99.90;;;;;;6153442;23;20533;-67
2021/11/13 07:59:40;;;;;;;31.90;20.90;;;7.30;99.90;;;;;;6152154;23;20207;-67
2021/11/13 08:02:06;;;;;;;30.63;20.87;;;7.30;99.90;;;;;;6152423;23;20628;-68
2021/11/13 08:04:34;;;;;;;30.70;20.97;;;7.30;99.90;;;;;;6152534;23;20207;-68
2021/11/13 08:07:05;;;;;;;32.13;20.53;;;7.20;99.90;;;;;;6152824;23;20177;-67
2021/11/13 08:09:31;;;;;;;29.53;20.30;;;7.30;99.90;;;;;;6153660;23;20502;-67
2021/11/13 08:11:58;;;;;;;31.53;20.83;;;7.30;99.90;;;;;;6151097;23;20597;-67
2021/11/13 08:14:27;;;;;;;36.53;21.57;;;7.20;99.90;;;;;;6151690;23;20181;-67
2021/11/13 08:16:52;;;;;;;31.83;21.90;;;7.20;99.90;;;;;;6151570;23;20564;-67
2021/11/13 08:19:18;;;;;;;30.10;19.87;;;7.20;99.90;;;;;;6152756;23;21251;-67
2021/11/13 08:21:48;;;;;;;30.60;19.50;;;7.30;99.90;;;;;;6150530;23;20201;-67
2021/11/13 08:24:18;;;;;;;31.87;19.33;;;7.20;99.90;;;;;;6151482;23;20232;-67
2021/11/13 08:26:44;;;;;;;27.93;19.77;;;7.30;99.90;;;;;;6152660;23;20529;-67
2021/11/13 08:29:11;;;;;;;33.13;21.77;;;7.30;99.90;;;;;;6151864;23;20529;-67
2021/11/13 08:31:37;;;;;;;28.50;18.80;;;7.30;99.90;;;;;;6151235;23;20589;-67
2021/11/13 08:34:03;;;;;;;30.40;19.83;;;7.30;99.90;;;;;;6149759;23;20940;-67
2021/11/13 08:36:28;;;;;;;27.70;19.87;;;7.40;99.90;;;;;;6152300;23;20529;-67
2021/11/13 08:38:54;;;;;;;29.17;19.70;;;7.40;99.90;;;;;;6150432;23;20848;-67
2021/11/13 08:41:20;;;;;;;29.23;19.90;;;7.40;99.90;;;;;;6149806;23;20205;-67
2021/11/13 08:43:47;;;;;;;33.53;20.90;;;7.40;99.90;;;;;;6147681;23;20165;-67
2021/11/13 08:46:13;;;;;;;31.43;20.20;;;7.40;99.90;;;;;;6151300;23;20682;-67
2021/11/13 08:48:39;;;;;;;31.63;20.10;;;7.40;99.90;;;;;;6151546;23;20529;-66
2021/11/13 08:51:04;;;;;;;32.03;21.70;;;7.40;99.90;;;;;;6151842;23;20581;-66
2021/11/13 08:53:30;;;;;;;28.80;20.03;;;7.40;99.90;;;;;;6150546;23;20188;-67
2021/11/13 08:55:56;;;;;;;30.20;20.87;;;7.40;99.90;;;;;;6148513;23;20173;-66
2021/11/13 08:58:21;;;;;;;27.57;20.20;;;7.50;99.90;;;;;;6149567;23;20158;-67
2021/11/13 09:00:49;;;;;;;29.87;21.50;;;7.50;99.90;;;;;;6150797;23;20275;-67
2021/11/13 09:03:26;;;;;;;26.87;20.27;;;7.50;99.90;;;;;;6152131;23;20157;-67
2021/11/13 09:05:52;;;;;;;29.57;20.63;;;7.60;99.90;;;;;;6148846;23;21196;-66
2021/11/13 09:08:18;;;;;;;31.27;20.33;;;7.60;99.90;;;;;;6150017;23;21196;-65
2021/11/13 09:10:45;;;;;;;35.60;21.40;;;7.60;99.90;;;;;;6149925;23;20589;-67
2021/11/13 09:13:14;;;;;;;31.53;20.40;;;7.60;99.90;;;;;;6138259;23;20162;-67
2021/11/13 09:15:40;;;;;;;31.57;20.47;;;7.60;99.90;;;;;;6149039;23;20600;-67
2021/11/13 09:18:08;;;;;;;28.87;19.57;;;7.70;99.90;;;;;;6150007;23;20529;-67
2021/11/13 09:20:36;;;;;;;29.70;19.70;;;7.70;99.90;;;;;;6149767;23;20604;-67
2021/11/13 09:23:03;;;;;;;30.23;20.07;;;7.70;99.90;;;;;;6149471;23;20882;-67
2021/11/13 09:25:29;;;;;;;28.63;19.27;;;7.70;99.90;;;;;;6149906;23;20623;-67
2021/11/13 09:27:55;;;;;;;25.70;19.10;;;7.70;99.90;;;;;;6150655;23;20533;-67
2021/11/13 09:30:25;;;;;;;30.60;20.10;;;7.80;99.90;;;;;;6146157;23;20608;-67
2021/11/13 09:32:51;;;;;;;28.83;19.50;;;7.80;99.90;;;;;;6150361;23;20530;-67
2021/11/13 09:35:21;;;;;;;32.47;21.50;;;7.80;99.90;;;;;;6151591;23;20631;-67
2021/11/13 09:37:47;;;;;;;28.97;20.50;;;7.80;99.90;;;;;;6151624;23;20162;-68
2021/11/13 09:40:16;;;;;;;31.33;20.83;;;7.70;99.90;;;;;;6140867;23;20596;-68
2021/11/13 09:42:44;;;;;;;30.70;21.70;;;7.60;99.90;;;;;;6146825;23;20994;-67
2021/11/13 09:45:10;;;;;;;29.40;19.40;;;7.80;99.90;;;;;;6146239;23;20609;-67
2021/11/13 09:47:36;;;;;;;29.40;19.27;;;7.70;99.90;;;;;;6144553;23;20592;-68
2021/11/13 09:50:04;;;;;;;28.80;19.57;;;7.80;99.90;;;;;;6143390;23;20168;-68
2021/11/13 09:52:30;;;;;;;32.20;20.20;;;7.80;99.90;;;;;;6146933;23;20533;-68
2021/11/13 09:54:56;;;;;;;29.27;20.30;;;7.80;99.90;;;;;;6146084;23;20950;-67
2021/11/13 09:57:23;;;;;;;29.13;20.07;;;7.80;99.90;;;;;;6139859;23;20543;-68
2021/11/13 09:59:48;;;;;;;28.57;20.10;;;7.80;99.90;;;;;;6146801;23;20165;-68
2021/11/13 10:02:14;;;;;;;28.30;20.80;;;7.80;99.90;;;;;;6144187;23;20600;-68
2021/11/13 10:04:40;;;;;;;36.53;21.13;;;7.80;99.90;;;;;;6158406;23;20185;-68
2021/11/13 10:07:06;;;;;;;29.90;20.43;;;7.80;99.90;;;;;;6143792;23;20169;-68
2021/11/13 10:09:31;;;;;;;29.53;21.00;;;7.80;99.90;;;;;;6146195;23;20614;-68
2021/11/13 10:11:57;;;;;;;27.80;19.33;;;7.80;99.90;;;;;;6146082;23;20197;-68
2021/11/13 10:14:42;;;;;;;28.67;19.23;;;7.90;99.90;;;;;;6144661;23;20189;-67
2021/11/13 10:17:23;;;;;;;28.40;20.27;;;7.80;99.90;;;;;;6142722;23;20923;-68
2021/11/13 10:19:50;;;;;;;30.90;20.83;;;7.90;99.90;;;;;;6147192;23;21074;-68
2021/11/13 10:22:16;;;;;;;27.07;17.87;;;7.90;99.90;;;;;;6145948;23;20592;-68
2021/11/13 10:24:52;;;;;;;29.60;20.60;;;8.00;99.90;;;;;;6145323;23;20605;-68
2021/11/13 10:27:19;;;;;;;30.50;19.00;;;8.00;99.90;;;;;;6144687;23;21182;-68
2021/11/13 10:29:47;;;;;;;31.27;19.67;;;8.10;99.90;;;;;;6145994;23;21089;-68
2021/11/13 10:32:18;;;;;;;29.00;19.47;;;8.10;99.90;;;;;;6149630;23;20709;-68
2021/11/13 10:34:48;;;;;;;25.57;17.87;;;8.10;99.90;;;;;;6148212;23;20603;-68
2021/11/13 10:37:18;;;;;;;28.67;20.70;;;8.10;99.90;;;;;;6143372;23;20585;-68
2021/11/13 10:39:45;;;;;;;27.30;18.57;;;8.10;99.90;;;;;;6142596;23;20601;-68
2021/11/13 10:42:13;;;;;;;28.40;18.27;;;8.10;99.90;;;;;;6144005;23;20599;-68
2021/11/13 10:44:47;;;;;;;26.50;18.50;;;8.20;99.90;;;;;;6145948;23;21011;-68
2021/11/13 10:47:15;;;;;;;22.23;17.00;;;8.20;99.90;;;;;;6145454;23;20560;-68
2021/11/13 10:49:42;;;;;;;23.83;17.37;;;8.20;99.90;;;;;;6144980;23;20530;-67
2021/11/13 10:52:10;;;;;;;27.70;18.53;;;8.20;99.90;;;;;;6143593;23;20593;-67
2021/11/13 10:54:37;;;;;;;30.00;18.90;;;8.30;99.90;;;;;;6149068;23;20588;-67
2021/11/13 10:57:06;;;;;;;27.83;19.27;;;8.40;99.90;;;;;;6145543;23;20866;-68
2021/11/13 10:59:34;;;;;;;27.00;18.90;;;8.40;99.90;;;;;;6141990;23;20565;-68
2021/11/13 11:02:04;;;;;;;26.77;19.00;;;8.40;99.90;;;;;;6146677;23;20589;-68
2021/11/13 11:04:33;;;;;;;27.50;18.50;;;8.40;99.90;;;;;;6143690;23;21165;-68
2021/11/13 11:07:15;;;;;;;28.87;19.00;;;8.40;99.90;;;;;;6145972;23;20600;-68
2021/11/13 11:09:46;;;;;;;25.20;17.10;;;8.40;99.90;;;;;;6144735;23;20646;-68
2021/11/13 11:12:15;;;;;;;22.53;17.30;;;8.40;99.90;;;;;;6145690;23;21205;-68
2021/11/13 11:14:46;;;;;;;23.63;16.67;;;8.50;99.90;;;;;;6150023;23;21147;-68
2021/11/13 11:17:15;;;;;;;27.13;19.60;;;8.50;99.90;;;;;;6148605;23;20549;-68
2021/11/13 11:19:45;;;;;;;29.03;19.73;;;8.60;99.90;;;;;;6150340;23;20594;-68
2021/11/13 11:22:16;;;;;;;28.10;18.87;;;8.60;99.90;;;;;;6160662;23;20600;-68
2021/11/13 11:24:48;;;;;;;28.13;18.97;;;8.60;99.90;;;;;;6162934;23;21171;-68
2021/11/13 11:27:21;;;;;;;26.00;17.53;;;8.60;99.90;;;;;;6152864;23;20553;-68
2021/11/13 11:29:54;;;;;;;28.53;17.83;;;8.60;99.90;;;;;;6149034;23;20966;-68
2021/11/13 11:32:29;;;;;;;26.37;16.63;;;8.60;99.90;;;;;;6146713;23;20619;-67
2021/11/13 11:34:57;;;;;;;27.73;19.67;;;8.60;99.90;;;;;;6145578;23;20603;-68
2021/11/13 11:37:27;;;;;;;23.53;17.10;;;8.60;99.90;;;;;;6147876;23;20612;-67
2021/11/13 11:39:56;;;;;;;27.63;18.93;;;8.60;99.90;;;;;;6147584;23;20603;-68
2021/11/13 11:42:22;;;;;;;23.20;17.57;;;8.60;99.90;;;;;;6148629;23;20593;-68
2021/11/13 11:44:48;;;;;;;25.83;18.13;;;8.70;99.90;;;;;;6147434;23;21127;-68
2021/11/13 11:47:16;;;;;;;25.67;17.40;;;8.60;99.90;;;;;;6149992;23;20545;-68
2021/11/13 11:49:51;;;;;;;23.27;17.30;;;8.50;99.90;;;;;;6152541;23;20526;-68
2021/11/13 11:52:19;;;;;;;27.20;19.07;;;8.60;99.90;;;;;;6150204;23;20593;-67
2021/11/13 11:54:46;;;;;;;25.87;17.27;;;8.70;99.90;;;;;;6143540;23;20597;-68
2021/11/13 11:57:13;;;;;;;23.93;16.93;;;8.70;99.90;;;;;;6146721;23;20569;-68
2021/11/13 11:59:40;;;;;;;24.10;15.23;;;8.80;99.90;;;;;;6147000;23;20675;-68
2021/11/13 12:02:15;;;;;;;23.70;16.03;;;8.70;99.90;;;;;;6147855;23;20592;-67
2021/11/13 12:04:43;;;;;;;26.50;17.40;;;8.80;99.90;;;;;;6147227;23;20608;-67
2021/11/13 12:07:12;;;;;;;27.00;17.33;;;8.70;99.90;;;;;;6147603;23;20573;-67
2021/11/13 12:10:07;;;;;;;27.20;18.30;;;8.70;99.90;;;;;;6147498;23;20533;-67
2021/11/13 12:12:34;;;;;;;24.97;18.20;;;8.80;99.90;;;;;;6144238;23;20644;-67
2021/11/13 12:15:18;;;;;;;26.20;15.77;;;8.80;99.90;;;;;;6147248;23;20656;-68
2021/11/13 12:17:49;;;;;;;21.50;17.10;;;8.80;99.90;;;;;;6146404;23;20829;-68
2021/11/13 12:20:23;;;;;;;25.40;16.37;;;8.80;99.90;;;;;;6147738;23;20513;-68
2021/11/13 12:23:01;;;;;;;24.47;16.37;;;8.90;99.90;;;;;;6146366;23;20593;-68
2021/11/13 12:25:31;;;;;;;26.00;17.27;;;8.90;99.90;;;;;;6149705;23;20655;-68
2021/11/13 12:28:21;;;;;;;21.77;18.37;;;9.00;99.90;;;;;;6149481;23;20538;-67
2021/11/13 12:31:01;;;;;;;25.60;17.23;;;9.00;99.90;;;;;;6148810;23;20553;-68
2021/11/13 12:33:27;;;;;;;23.17;16.80;;;9.10;99.90;;;;;;6146605;23;20584;-67
2021/11/13 12:36:30;;;;;;;21.73;16.00;;;9.10;99.90;;;;;;6147847;23;20572;-68
2021/11/13 12:38:56;;;;;;;22.43;15.80;;;9.20;99.90;;;;;;6028889;23;20171;-68
2021/11/13 12:41:45;;;;;;;20.83;16.00;;;9.20;99.90;;;;;;6123149;23;20581;-68
2021/11/13 12:44:25;;;;;;;22.23;16.20;;;9.20;99.90;;;;;;6145661;23;20905;-68
2021/11/13 12:47:00;;;;;;;21.03;15.23;;;9.30;99.90;;;;;;6148473;23;20530;-68